sensor_id;sensor_type;location;lat;lon;timestamp;P1;durP1;ratioP1;P2;durP2;ratioP2
5833;SDS011;2943;48.012;10.968;2023-02-04T00:00:12;3.70;;;3.40;;
5833;SDS011;2943;48.012;10.968;2023-02-04T00:02:41;4.90;;;3.03;;
5833;SDS011;2943;48.012;10.968;2023-02-04T00:05:08;2.87;;;2.70;;
5833;SDS011;2943;48.012;10.968;2023-02-04T00:07:36;3.70;;;3.40;;
5833;SDS011;2943;48.012;10.968;2023-02-04T00:10:03;3.40;;;3.10;;
5833;SDS011;2943;48.012;10.968;2023-02-04T00:12:33;3.40;;;3.13;;
5833;SDS011;2943;48.012;10.968;2023-02-04T00:15:00;4.27;;;2.87;;
5833;SDS011;2943;48.012;10.968;2023-02-04T00:17:27;3.00;;;2.80;;
5833;SDS011;2943;48.012;10.968;2023-02-04T00:19:54;3.00;;;2.80;;
5833;SDS011;2943;48.012;10.968;2023-02-04T00:22:22;3.30;;;3.00;;
5833;SDS011;2943;48.012;10.968;2023-02-04T00:24:50;3.00;;;2.80;;
5833;SDS011;2943;48.012;10.968;2023-02-04T00:27:17;2.97;;;2.77;;
5833;SDS011;2943;48.012;10.968;2023-02-04T00:29:45;5.37;;;3.07;;
5833;SDS011;2943;48.012;10.968;2023-02-04T00:32:12;3.07;;;2.87;;
5833;SDS011;2943;48.012;10.968;2023-02-04T00:34:39;3.17;;;2.97;;
5833;SDS011;2943;48.012;10.968;2023-02-04T00:37:06;3.07;;;2.80;;
5833;SDS011;2943;48.012;10.968;2023-02-04T00:39:33;3.17;;;2.87;;
5833;SDS011;2943;48.012;10.968;2023-02-04T00:42:00;3.57;;;3.23;;
5833;SDS011;2943;48.012;10.968;2023-02-04T00:44:27;3.00;;;2.80;;
5833;SDS011;2943;48.012;10.968;2023-02-04T00:46:55;2.70;;;2.50;;
5833;SDS011;2943;48.012;10.968;2023-02-04T00:49:22;3.23;;;2.87;;
5833;SDS011;2943;48.012;10.968;2023-02-04T00:51:49;2.90;;;2.70;;
5833;SDS011;2943;48.012;10.968;2023-02-04T00:54:15;3.13;;;2.83;;
5833;SDS011;2943;48.012;10.968;2023-02-04T00:56:43;3.57;;;3.27;;
5833;SDS011;2943;48.012;10.968;2023-02-04T00:59:10;3.80;;;3.43;;
5833;SDS011;2943;48.012;10.968;2023-02-04T01:01:37;3.53;;;3.23;;
5833;SDS011;2943;48.012;10.968;2023-02-04T01:04:05;3.30;;;3.10;;
5833;SDS011;2943;48.012;10.968;2023-02-04T01:06:32;3.87;;;3.57;;
5833;SDS011;2943;48.012;10.968;2023-02-04T01:08:59;3.60;;;3.40;;
5833;SDS011;2943;48.012;10.968;2023-02-04T01:11:26;3.63;;;3.33;;
5833;SDS011;2943;48.012;10.968;2023-02-04T01:13:53;4.63;;;4.23;;
5833;SDS011;2943;48.012;10.968;2023-02-04T01:16:20;4.00;;;3.70;;
5833;SDS011;2943;48.012;10.968;2023-02-04T01:18:47;4.00;;;3.70;;
5833;SDS011;2943;48.012;10.968;2023-02-04T01:21:15;5.43;;;4.70;;
5833;SDS011;2943;48.012;10.968;2023-02-04T01:23:42;4.07;;;3.77;;
5833;SDS011;2943;48.012;10.968;2023-02-04T01:26:09;4.60;;;4.20;;
5833;SDS011;2943;48.012;10.968;2023-02-04T01:28:36;6.20;;;4.10;;
5833;SDS011;2943;48.012;10.968;2023-02-04T01:31:02;4.40;;;4.00;;
5833;SDS011;2943;48.012;10.968;2023-02-04T01:33:29;4.23;;;3.90;;
5833;SDS011;2943;48.012;10.968;2023-02-04T01:35:56;4.97;;;4.47;;
5833;SDS011;2943;48.012;10.968;2023-02-04T01:38:24;5.57;;;4.70;;
5833;SDS011;2943;48.012;10.968;2023-02-04T01:40:51;4.90;;;4.40;;
5833;SDS011;2943;48.012;10.968;2023-02-04T01:43:19;5.00;;;4.60;;
5833;SDS011;2943;48.012;10.968;2023-02-04T01:45:46;9.43;;;4.20;;
5833;SDS011;2943;48.012;10.968;2023-02-04T01:48:13;4.37;;;3.97;;
5833;SDS011;2943;48.012;10.968;2023-02-04T01:50:44;4.47;;;4.07;;
5833;SDS011;2943;48.012;10.968;2023-02-04T01:53:11;4.43;;;3.90;;
5833;SDS011;2943;48.012;10.968;2023-02-04T01:55:40;5.13;;;4.33;;
5833;SDS011;2943;48.012;10.968;2023-02-04T01:58:08;3.90;;;3.60;;
5833;SDS011;2943;48.012;10.968;2023-02-04T02:00:36;5.20;;;3.77;;
5833;SDS011;2943;48.012;10.968;2023-02-04T02:03:03;5.17;;;3.80;;
5833;SDS011;2943;48.012;10.968;2023-02-04T02:05:34;3.77;;;3.47;;
5833;SDS011;2943;48.012;10.968;2023-02-04T02:08:04;6.20;;;4.30;;
5833;SDS011;2943;48.012;10.968;2023-02-04T02:10:32;4.33;;;3.93;;
5833;SDS011;2943;48.012;10.968;2023-02-04T02:13:01;6.30;;;4.40;;
5833;SDS011;2943;48.012;10.968;2023-02-04T02:15:29;6.43;;;4.53;;
5833;SDS011;2943;48.012;10.968;2023-02-04T02:17:55;4.50;;;4.10;;
5833;SDS011;2943;48.012;10.968;2023-02-04T02:20:23;5.27;;;4.77;;
5833;SDS011;2943;48.012;10.968;2023-02-04T02:22:55;3.93;;;3.63;;
5833;SDS011;2943;48.012;10.968;2023-02-04T02:25:28;4.77;;;4.03;;
5833;SDS011;2943;48.012;10.968;2023-02-04T02:27:55;3.80;;;3.50;;
5833;SDS011;2943;48.012;10.968;2023-02-04T02:30:23;4.80;;;4.07;;
5833;SDS011;2943;48.012;10.968;2023-02-04T02:32:52;3.83;;;3.53;;
5833;SDS011;2943;48.012;10.968;2023-02-04T02:35:19;3.93;;;3.63;;
5833;SDS011;2943;48.012;10.968;2023-02-04T02:37:47;3.83;;;3.50;;
5833;SDS011;2943;48.012;10.968;2023-02-04T02:40:14;4.33;;;4.03;;
5833;SDS011;2943;48.012;10.968;2023-02-04T02:42:45;4.23;;;3.90;;
5833;SDS011;2943;48.012;10.968;2023-02-04T02:45:17;4.00;;;3.57;;
5833;SDS011;2943;48.012;10.968;2023-02-04T02:47:47;3.77;;;3.47;;
5833;SDS011;2943;48.012;10.968;2023-02-04T02:50:15;3.43;;;3.17;;
5833;SDS011;2943;48.012;10.968;2023-02-04T02:52:44;3.93;;;3.53;;
5833;SDS011;2943;48.012;10.968;2023-02-04T02:55:12;4.10;;;3.80;;
5833;SDS011;2943;48.012;10.968;2023-02-04T02:57:41;3.90;;;3.60;;
5833;SDS011;2943;48.012;10.968;2023-02-04T03:00:14;3.43;;;3.17;;
5833;SDS011;2943;48.012;10.968;2023-02-04T03:02:42;4.93;;;3.90;;
5833;SDS011;2943;48.012;10.968;2023-02-04T03:05:10;4.10;;;3.80;;
5833;SDS011;2943;48.012;10.968;2023-02-04T03:07:38;3.97;;;3.67;;
5833;SDS011;2943;48.012;10.968;2023-02-04T03:10:05;4.10;;;3.20;;
5833;SDS011;2943;48.012;10.968;2023-02-04T03:12:32;4.13;;;3.83;;
5833;SDS011;2943;48.012;10.968;2023-02-04T03:14:59;4.03;;;3.73;;
5833;SDS011;2943;48.012;10.968;2023-02-04T03:17:30;4.23;;;3.93;;
5833;SDS011;2943;48.012;10.968;2023-02-04T03:19:58;4.83;;;4.40;;
5833;SDS011;2943;48.012;10.968;2023-02-04T03:22:25;6.03;;;4.70;;
5833;SDS011;2943;48.012;10.968;2023-02-04T03:24:52;5.50;;;5.00;;
5833;SDS011;2943;48.012;10.968;2023-02-04T03:27:19;5.83;;;4.97;;
5833;SDS011;2943;48.012;10.968;2023-02-04T03:29:46;10.07;;;5.20;;
5833;SDS011;2943;48.012;10.968;2023-02-04T03:32:12;7.03;;;4.53;;
5833;SDS011;2943;48.012;10.968;2023-02-04T03:34:41;7.23;;;4.90;;
5833;SDS011;2943;48.012;10.968;2023-02-04T03:37:08;6.30;;;3.60;;
5833;SDS011;2943;48.012;10.968;2023-02-04T03:39:34;5.37;;;3.90;;
5833;SDS011;2943;48.012;10.968;2023-02-04T03:42:01;5.40;;;3.83;;
5833;SDS011;2943;48.012;10.968;2023-02-04T03:44:28;6.13;;;4.37;;
5833;SDS011;2943;48.012;10.968;2023-02-04T03:46:55;8.40;;;4.60;;
5833;SDS011;2943;48.012;10.968;2023-02-04T03:49:22;9.40;;;4.87;;
5833;SDS011;2943;48.012;10.968;2023-02-04T03:51:50;11.27;;;5.57;;
5833;SDS011;2943;48.012;10.968;2023-02-04T03:54:17;9.07;;;4.40;;
5833;SDS011;2943;48.012;10.968;2023-02-04T03:56:44;9.17;;;4.07;;
5833;SDS011;2943;48.012;10.968;2023-02-04T03:59:11;15.30;;;4.40;;
5833;SDS011;2943;48.012;10.968;2023-02-04T04:01:37;15.93;;;5.20;;
5833;SDS011;2943;48.012;10.968;2023-02-04T04:04:04;10.73;;;4.60;;
5833;SDS011;2943;48.012;10.968;2023-02-04T04:06:31;14.57;;;4.20;;
5833;SDS011;2943;48.012;10.968;2023-02-04T04:08:59;12.83;;;5.30;;
5833;SDS011;2943;48.012;10.968;2023-02-04T04:11:26;11.77;;;5.30;;
5833;SDS011;2943;48.012;10.968;2023-02-04T04:13:53;23.23;;;6.63;;
5833;SDS011;2943;48.012;10.968;2023-02-04T04:16:20;12.40;;;5.70;;
5833;SDS011;2943;48.012;10.968;2023-02-04T04:18:47;12.60;;;4.70;;
5833;SDS011;2943;48.012;10.968;2023-02-04T04:21:14;15.17;;;4.93;;
5833;SDS011;2943;48.012;10.968;2023-02-04T04:23:41;12.93;;;4.80;;
5833;SDS011;2943;48.012;10.968;2023-02-04T04:26:09;23.27;;;6.17;;
5833;SDS011;2943;48.012;10.968;2023-02-04T04:28:36;12.43;;;5.80;;
5833;SDS011;2943;48.012;10.968;2023-02-04T04:31:02;14.93;;;5.77;;
5833;SDS011;2943;48.012;10.968;2023-02-04T04:33:30;16.77;;;5.93;;
5833;SDS011;2943;48.012;10.968;2023-02-04T04:35:56;11.23;;;4.87;;
5833;SDS011;2943;48.012;10.968;2023-02-04T04:38:23;15.17;;;4.40;;
5833;SDS011;2943;48.012;10.968;2023-02-04T04:40:50;11.63;;;3.70;;
5833;SDS011;2943;48.012;10.968;2023-02-04T04:43:18;8.90;;;3.93;;
5833;SDS011;2943;48.012;10.968;2023-02-04T04:45:45;10.83;;;3.60;;
5833;SDS011;2943;48.012;10.968;2023-02-04T04:48:12;3.10;;;2.60;;
5833;SDS011;2943;48.012;10.968;2023-02-04T04:50:39;4.80;;;3.63;;
5833;SDS011;2943;48.012;10.968;2023-02-04T04:53:06;6.10;;;3.30;;
5833;SDS011;2943;48.012;10.968;2023-02-04T04:55:35;5.47;;;4.07;;
5833;SDS011;2943;48.012;10.968;2023-02-04T04:58:02;8.07;;;4.10;;
5833;SDS011;2943;48.012;10.968;2023-02-04T05:00:30;9.27;;;4.70;;
5833;SDS011;2943;48.012;10.968;2023-02-04T05:02:57;6.80;;;4.97;;
5833;SDS011;2943;48.012;10.968;2023-02-04T05:05:25;9.10;;;4.43;;
5833;SDS011;2943;48.012;10.968;2023-02-04T05:07:52;11.07;;;4.63;;
5833;SDS011;2943;48.012;10.968;2023-02-04T05:10:19;14.17;;;4.80;;
5833;SDS011;2943;48.012;10.968;2023-02-04T05:12:47;11.27;;;4.90;;
5833;SDS011;2943;48.012;10.968;2023-02-04T05:15:14;8.40;;;4.60;;
5833;SDS011;2943;48.012;10.968;2023-02-04T05:17:42;14.77;;;5.40;;
5833;SDS011;2943;48.012;10.968;2023-02-04T05:20:10;23.97;;;6.43;;
5833;SDS011;2943;48.012;10.968;2023-02-04T05:22:39;18.43;;;5.90;;
5833;SDS011;2943;48.012;10.968;2023-02-04T05:25:08;10.27;;;6.33;;
5833;SDS011;2943;48.012;10.968;2023-02-04T05:27:35;12.17;;;5.40;;
5833;SDS011;2943;48.012;10.968;2023-02-04T05:30:03;10.43;;;5.77;;
5833;SDS011;2943;48.012;10.968;2023-02-04T05:32:31;13.03;;;5.73;;
5833;SDS011;2943;48.012;10.968;2023-02-04T05:34:59;12.23;;;6.00;;
5833;SDS011;2943;48.012;10.968;2023-02-04T05:37:26;12.57;;;6.20;;
5833;SDS011;2943;48.012;10.968;2023-02-04T05:39:53;19.53;;;7.57;;
5833;SDS011;2943;48.012;10.968;2023-02-04T05:42:20;12.47;;;5.93;;
5833;SDS011;2943;48.012;10.968;2023-02-04T05:44:47;18.63;;;6.77;;
5833;SDS011;2943;48.012;10.968;2023-02-04T05:47:14;17.10;;;6.60;;
5833;SDS011;2943;48.012;10.968;2023-02-04T05:49:43;15.03;;;7.53;;
5833;SDS011;2943;48.012;10.968;2023-02-04T05:52:11;11.57;;;6.10;;
5833;SDS011;2943;48.012;10.968;2023-02-04T05:54:38;18.17;;;6.77;;
5833;SDS011;2943;48.012;10.968;2023-02-04T05:57:06;27.20;;;8.17;;
5833;SDS011;2943;48.012;10.968;2023-02-04T05:59:33;16.60;;;6.67;;
5833;SDS011;2943;48.012;10.968;2023-02-04T06:02:01;15.77;;;7.53;;
5833;SDS011;2943;48.012;10.968;2023-02-04T06:04:28;18.53;;;6.70;;
5833;SDS011;2943;48.012;10.968;2023-02-04T06:06:55;10.17;;;6.27;;
5833;SDS011;2943;48.012;10.968;2023-02-04T06:09:23;20.67;;;6.80;;
5833;SDS011;2943;48.012;10.968;2023-02-04T06:11:51;16.30;;;6.77;;
5833;SDS011;2943;48.012;10.968;2023-02-04T06:14:18;16.73;;;6.27;;
5833;SDS011;2943;48.012;10.968;2023-02-04T06:16:46;20.77;;;6.70;;
5833;SDS011;2943;48.012;10.968;2023-02-04T06:19:13;25.37;;;9.17;;
5833;SDS011;2943;48.012;10.968;2023-02-04T06:21:40;34.93;;;17.23;;
5833;SDS011;2943;48.012;10.968;2023-02-04T06:24:07;22.53;;;7.50;;
5833;SDS011;2943;48.012;10.968;2023-02-04T06:26:37;14.53;;;6.40;;
5833;SDS011;2943;48.012;10.968;2023-02-04T06:29:03;18.23;;;9.67;;
5833;SDS011;2943;48.012;10.968;2023-02-04T06:31:31;18.87;;;6.57;;
5833;SDS011;2943;48.012;10.968;2023-02-04T06:33:58;17.83;;;7.10;;
5833;SDS011;2943;48.012;10.968;2023-02-04T06:36:24;13.80;;;6.10;;
5833;SDS011;2943;48.012;10.968;2023-02-04T06:38:51;13.40;;;5.90;;
5833;SDS011;2943;48.012;10.968;2023-02-04T06:41:19;21.93;;;6.70;;
5833;SDS011;2943;48.012;10.968;2023-02-04T06:43:47;17.47;;;6.20;;
5833;SDS011;2943;48.012;10.968;2023-02-04T06:46:14;19.00;;;6.30;;
5833;SDS011;2943;48.012;10.968;2023-02-04T06:48:41;14.97;;;6.63;;
5833;SDS011;2943;48.012;10.968;2023-02-04T06:51:08;24.93;;;6.43;;
5833;SDS011;2943;48.012;10.968;2023-02-04T06:53:37;17.90;;;6.60;;
5833;SDS011;2943;48.012;10.968;2023-02-04T06:56:08;20.77;;;7.33;;
5833;SDS011;2943;48.012;10.968;2023-02-04T06:58:35;18.43;;;6.40;;
5833;SDS011;2943;48.012;10.968;2023-02-04T07:01:03;13.53;;;5.33;;
5833;SDS011;2943;48.012;10.968;2023-02-04T07:03:31;17.47;;;6.57;;
5833;SDS011;2943;48.012;10.968;2023-02-04T07:05:58;22.50;;;6.30;;
5833;SDS011;2943;48.012;10.968;2023-02-04T07:08:26;25.80;;;7.60;;
5833;SDS011;2943;48.012;10.968;2023-02-04T07:10:54;20.07;;;8.20;;
5833;SDS011;2943;48.012;10.968;2023-02-04T07:13:22;19.40;;;6.37;;
5833;SDS011;2943;48.012;10.968;2023-02-04T07:15:49;12.47;;;5.93;;
5833;SDS011;2943;48.012;10.968;2023-02-04T07:18:18;26.73;;;6.97;;
5833;SDS011;2943;48.012;10.968;2023-02-04T07:20:45;14.73;;;5.53;;
5833;SDS011;2943;48.012;10.968;2023-02-04T07:23:12;13.93;;;6.50;;
5833;SDS011;2943;48.012;10.968;2023-02-04T07:25:39;19.83;;;6.77;;
5833;SDS011;2943;48.012;10.968;2023-02-04T07:28:08;14.10;;;5.10;;
5833;SDS011;2943;48.012;10.968;2023-02-04T07:30:35;22.50;;;5.73;;
5833;SDS011;2943;48.012;10.968;2023-02-04T07:33:03;17.93;;;6.20;;
5833;SDS011;2943;48.012;10.968;2023-02-04T07:35:31;16.73;;;4.97;;
5833;SDS011;2943;48.012;10.968;2023-02-04T07:38:02;15.03;;;5.20;;
5833;SDS011;2943;48.012;10.968;2023-02-04T07:40:29;21.43;;;6.00;;
5833;SDS011;2943;48.012;10.968;2023-02-04T07:42:56;18.13;;;5.67;;
5833;SDS011;2943;48.012;10.968;2023-02-04T07:45:24;11.80;;;5.33;;
5833;SDS011;2943;48.012;10.968;2023-02-04T07:47:50;14.20;;;5.63;;
5833;SDS011;2943;48.012;10.968;2023-02-04T07:50:20;16.97;;;5.13;;
5833;SDS011;2943;48.012;10.968;2023-02-04T07:52:50;23.90;;;6.10;;
5833;SDS011;2943;48.012;10.968;2023-02-04T07:55:18;15.60;;;5.40;;
5833;SDS011;2943;48.012;10.968;2023-02-04T07:57:45;14.70;;;5.60;;
5833;SDS011;2943;48.012;10.968;2023-02-04T08:00:12;14.20;;;5.70;;
5833;SDS011;2943;48.012;10.968;2023-02-04T08:02:40;14.70;;;5.77;;
5833;SDS011;2943;48.012;10.968;2023-02-04T08:05:07;14.43;;;5.77;;
5833;SDS011;2943;48.012;10.968;2023-02-04T08:07:37;19.40;;;6.33;;
5833;SDS011;2943;48.012;10.968;2023-02-04T08:10:06;23.43;;;5.67;;
5833;SDS011;2943;48.012;10.968;2023-02-04T08:12:34;25.93;;;5.30;;
5833;SDS011;2943;48.012;10.968;2023-02-04T08:15:01;13.17;;;6.00;;
5833;SDS011;2943;48.012;10.968;2023-02-04T08:17:29;11.27;;;5.87;;
5833;SDS011;2943;48.012;10.968;2023-02-04T08:19:57;20.83;;;5.90;;
5833;SDS011;2943;48.012;10.968;2023-02-04T08:22:24;17.03;;;6.10;;
5833;SDS011;2943;48.012;10.968;2023-02-04T08:24:51;23.53;;;7.87;;
5833;SDS011;2943;48.012;10.968;2023-02-04T08:27:19;25.33;;;8.10;;
5833;SDS011;2943;48.012;10.968;2023-02-04T08:29:46;25.63;;;10.30;;
5833;SDS011;2943;48.012;10.968;2023-02-04T08:32:16;26.83;;;9.47;;
5833;SDS011;2943;48.012;10.968;2023-02-04T08:34:42;20.17;;;9.20;;
5833;SDS011;2943;48.012;10.968;2023-02-04T08:37:09;30.10;;;8.77;;
5833;SDS011;2943;48.012;10.968;2023-02-04T08:39:37;10.90;;;5.43;;
5833;SDS011;2943;48.012;10.968;2023-02-04T08:42:08;13.13;;;5.30;;
5833;SDS011;2943;48.012;10.968;2023-02-04T08:44:37;9.83;;;5.57;;
5833;SDS011;2943;48.012;10.968;2023-02-04T08:47:04;22.00;;;6.07;;
5833;SDS011;2943;48.012;10.968;2023-02-04T08:49:32;13.20;;;5.40;;
5833;SDS011;2943;48.012;10.968;2023-02-04T08:51:59;15.10;;;5.13;;
5833;SDS011;2943;48.012;10.968;2023-02-04T08:54:28;11.47;;;5.00;;
5833;SDS011;2943;48.012;10.968;2023-02-04T08:56:55;12.70;;;5.47;;
5833;SDS011;2943;48.012;10.968;2023-02-04T08:59:22;17.67;;;6.90;;
5833;SDS011;2943;48.012;10.968;2023-02-04T09:01:51;12.00;;;5.10;;
5833;SDS011;2943;48.012;10.968;2023-02-04T09:04:18;15.33;;;4.53;;
5833;SDS011;2943;48.012;10.968;2023-02-04T09:06:46;35.20;;;5.50;;
5833;SDS011;2943;48.012;10.968;2023-02-04T09:09:14;19.90;;;9.57;;
5833;SDS011;2943;48.012;10.968;2023-02-04T09:11:41;11.77;;;5.00;;
5833;SDS011;2943;48.012;10.968;2023-02-04T09:14:08;7.20;;;3.67;;
5833;SDS011;2943;48.012;10.968;2023-02-04T09:16:36;18.00;;;3.83;;
5833;SDS011;2943;48.012;10.968;2023-02-04T09:19:05;12.00;;;3.87;;
5833;SDS011;2943;48.012;10.968;2023-02-04T09:21:35;11.27;;;3.70;;
5833;SDS011;2943;48.012;10.968;2023-02-04T09:24:01;14.00;;;3.77;;
5833;SDS011;2943;48.012;10.968;2023-02-04T09:26:29;10.60;;;3.97;;
5833;SDS011;2943;48.012;10.968;2023-02-04T09:28:55;14.17;;;3.80;;
5833;SDS011;2943;48.012;10.968;2023-02-04T09:31:22;9.10;;;2.90;;
5833;SDS011;2943;48.012;10.968;2023-02-04T09:33:49;12.83;;;3.53;;
5833;SDS011;2943;48.012;10.968;2023-02-04T09:36:18;11.23;;;3.40;;
5833;SDS011;2943;48.012;10.968;2023-02-04T09:38:44;10.10;;;3.10;;
5833;SDS011;2943;48.012;10.968;2023-02-04T09:41:12;6.90;;;3.00;;
5833;SDS011;2943;48.012;10.968;2023-02-04T09:43:41;40.73;;;12.10;;
5833;SDS011;2943;48.012;10.968;2023-02-04T09:46:13;19.93;;;4.10;;
5833;SDS011;2943;48.012;10.968;2023-02-04T09:48:45;6.50;;;3.93;;
5833;SDS011;2943;48.012;10.968;2023-02-04T09:51:13;9.33;;;3.37;;
5833;SDS011;2943;48.012;10.968;2023-02-04T09:53:45;9.47;;;3.20;;
5833;SDS011;2943;48.012;10.968;2023-02-04T09:56:13;9.13;;;3.13;;
5833;SDS011;2943;48.012;10.968;2023-02-04T09:58:41;10.90;;;3.67;;
5833;SDS011;2943;48.012;10.968;2023-02-04T10:01:10;9.77;;;2.90;;
5833;SDS011;2943;48.012;10.968;2023-02-04T10:03:40;14.83;;;4.43;;
5833;SDS011;2943;48.012;10.968;2023-02-04T10:06:12;8.93;;;3.70;;
5833;SDS011;2943;48.012;10.968;2023-02-04T10:08:40;12.87;;;4.53;;
5833;SDS011;2943;48.012;10.968;2023-02-04T10:11:10;6.90;;;4.03;;
5833;SDS011;2943;48.012;10.968;2023-02-04T10:13:40;8.37;;;3.10;;
5833;SDS011;2943;48.012;10.968;2023-02-04T10:16:12;11.30;;;3.73;;
5833;SDS011;2943;48.012;10.968;2023-02-04T10:18:43;11.80;;;3.30;;
5833;SDS011;2943;48.012;10.968;2023-02-04T10:21:16;16.27;;;3.63;;
5833;SDS011;2943;48.012;10.968;2023-02-04T10:23:46;14.13;;;3.53;;
5833;SDS011;2943;48.012;10.968;2023-02-04T10:26:16;9.93;;;3.37;;
5833;SDS011;2943;48.012;10.968;2023-02-04T10:28:45;11.10;;;3.40;;
5833;SDS011;2943;48.012;10.968;2023-02-04T10:31:30;17.87;;;4.03;;
5833;SDS011;2943;48.012;10.968;2023-02-04T10:34:08;19.93;;;3.73;;
5833;SDS011;2943;48.012;10.968;2023-02-04T10:36:37;14.07;;;3.30;;
5833;SDS011;2943;48.012;10.968;2023-02-04T10:39:18;7.87;;;3.20;;
5833;SDS011;2943;48.012;10.968;2023-02-04T10:41:48;15.53;;;3.77;;
5833;SDS011;2943;48.012;10.968;2023-02-04T10:44:17;11.80;;;3.23;;
5833;SDS011;2943;48.012;10.968;2023-02-04T10:46:47;9.00;;;3.57;;
5833;SDS011;2943;48.012;10.968;2023-02-04T10:49:19;12.23;;;4.57;;
5833;SDS011;2943;48.012;10.968;2023-02-04T10:51:47;14.27;;;3.70;;
5833;SDS011;2943;48.012;10.968;2023-02-04T10:54:15;16.30;;;3.73;;
5833;SDS011;2943;48.012;10.968;2023-02-04T10:56:58;17.00;;;3.63;;
5833;SDS011;2943;48.012;10.968;2023-02-04T10:59:29;11.27;;;3.53;;
5833;SDS011;2943;48.012;10.968;2023-02-04T11:01:56;11.73;;;3.60;;
5833;SDS011;2943;48.012;10.968;2023-02-04T11:04:25;14.50;;;3.10;;
5833;SDS011;2943;48.012;10.968;2023-02-04T11:06:53;11.37;;;3.27;;
5833;SDS011;2943;48.012;10.968;2023-02-04T11:09:20;14.73;;;3.60;;
5833;SDS011;2943;48.012;10.968;2023-02-04T11:11:48;10.27;;;3.53;;
5833;SDS011;2943;48.012;10.968;2023-02-04T11:14:24;12.00;;;3.33;;
5833;SDS011;2943;48.012;10.968;2023-02-04T11:16:53;11.60;;;3.70;;
5833;SDS011;2943;48.012;10.968;2023-02-04T11:19:34;9.60;;;4.00;;
5833;SDS011;2943;48.012;10.968;2023-02-04T11:22:04;10.27;;;3.67;;
5833;SDS011;2943;48.012;10.968;2023-02-04T11:24:32;15.80;;;3.80;;
5833;SDS011;2943;48.012;10.968;2023-02-04T11:27:06;14.13;;;3.47;;
5833;SDS011;2943;48.012;10.968;2023-02-04T11:29:46;11.70;;;3.50;;
5833;SDS011;2943;48.012;10.968;2023-02-04T11:32:26;14.33;;;3.87;;
5833;SDS011;2943;48.012;10.968;2023-02-04T11:35:04;8.67;;;3.33;;
5833;SDS011;2943;48.012;10.968;2023-02-04T11:37:45;21.80;;;3.57;;
5833;SDS011;2943;48.012;10.968;2023-02-04T11:40:19;17.20;;;5.47;;
5833;SDS011;2943;48.012;10.968;2023-02-04T11:42:55;12.50;;;3.07;;
5833;SDS011;2943;48.012;10.968;2023-02-04T11:45:25;11.77;;;3.33;;
5833;SDS011;2943;48.012;10.968;2023-02-04T11:47:55;15.40;;;3.50;;
5833;SDS011;2943;48.012;10.968;2023-02-04T11:50:25;9.67;;;3.20;;
5833;SDS011;2943;48.012;10.968;2023-02-04T11:52:54;10.83;;;3.63;;
5833;SDS011;2943;48.012;10.968;2023-02-04T11:55:21;14.53;;;4.00;;
5833;SDS011;2943;48.012;10.968;2023-02-04T11:57:52;12.80;;;3.33;;
5833;SDS011;2943;48.012;10.968;2023-02-04T12:00:21;13.40;;;3.60;;
5833;SDS011;2943;48.012;10.968;2023-02-04T12:02:53;18.53;;;3.30;;
5833;SDS011;2943;48.012;10.968;2023-02-04T12:05:28;19.00;;;5.10;;
5833;SDS011;2943;48.012;10.968;2023-02-04T12:08:11;15.17;;;4.23;;
5833;SDS011;2943;48.012;10.968;2023-02-04T12:10:46;9.50;;;3.53;;
5833;SDS011;2943;48.012;10.968;2023-02-04T12:13:15;12.47;;;3.77;;
5833;SDS011;2943;48.012;10.968;2023-02-04T12:15:53;17.67;;;5.20;;
5833;SDS011;2943;48.012;10.968;2023-02-04T12:18:22;11.50;;;4.07;;
5833;SDS011;2943;48.012;10.968;2023-02-04T12:20:51;6.43;;;3.13;;
5833;SDS011;2943;48.012;10.968;2023-02-04T12:23:19;13.47;;;4.20;;
5833;SDS011;2943;48.012;10.968;2023-02-04T12:25:46;22.13;;;3.53;;
5833;SDS011;2943;48.012;10.968;2023-02-04T12:28:12;11.50;;;3.63;;
5833;SDS011;2943;48.012;10.968;2023-02-04T12:30:40;11.87;;;3.40;;
5833;SDS011;2943;48.012;10.968;2023-02-04T12:33:08;10.33;;;3.40;;
5833;SDS011;2943;48.012;10.968;2023-02-04T12:35:35;15.63;;;3.47;;
5833;SDS011;2943;48.012;10.968;2023-02-04T12:38:02;13.17;;;3.50;;
5833;SDS011;2943;48.012;10.968;2023-02-04T12:40:29;9.57;;;3.57;;
5833;SDS011;2943;48.012;10.968;2023-02-04T12:42:56;13.73;;;3.80;;
5833;SDS011;2943;48.012;10.968;2023-02-04T12:45:23;13.30;;;3.37;;
5833;SDS011;2943;48.012;10.968;2023-02-04T12:47:50;15.07;;;3.17;;
5833;SDS011;2943;48.012;10.968;2023-02-04T12:50:18;12.43;;;3.47;;
5833;SDS011;2943;48.012;10.968;2023-02-04T12:52:47;9.97;;;3.13;;
5833;SDS011;2943;48.012;10.968;2023-02-04T12:55:15;15.40;;;3.90;;
5833;SDS011;2943;48.012;10.968;2023-02-04T12:57:42;9.40;;;3.73;;
5833;SDS011;2943;48.012;10.968;2023-02-04T13:00:09;8.50;;;3.70;;
5833;SDS011;2943;48.012;10.968;2023-02-04T13:02:37;14.23;;;3.80;;
5833;SDS011;2943;48.012;10.968;2023-02-04T13:05:05;16.83;;;4.27;;
5833;SDS011;2943;48.012;10.968;2023-02-04T13:07:33;10.40;;;3.10;;
5833;SDS011;2943;48.012;10.968;2023-02-04T13:10:00;8.30;;;3.80;;
5833;SDS011;2943;48.012;10.968;2023-02-04T13:12:28;10.27;;;3.20;;
5833;SDS011;2943;48.012;10.968;2023-02-04T13:14:56;7.47;;;3.53;;
5833;SDS011;2943;48.012;10.968;2023-02-04T13:17:24;14.93;;;3.37;;
5833;SDS011;2943;48.012;10.968;2023-02-04T13:19:50;12.33;;;3.50;;
5833;SDS011;2943;48.012;10.968;2023-02-04T13:22:17;6.43;;;3.03;;
5833;SDS011;2943;48.012;10.968;2023-02-04T13:24:46;6.50;;;3.20;;
5833;SDS011;2943;48.012;10.968;2023-02-04T13:27:12;15.00;;;3.10;;
5833;SDS011;2943;48.012;10.968;2023-02-04T13:29:40;8.13;;;3.50;;
5833;SDS011;2943;48.012;10.968;2023-02-04T13:32:07;6.37;;;3.30;;
5833;SDS011;2943;48.012;10.968;2023-02-04T13:34:34;7.70;;;3.17;;
5833;SDS011;2943;48.012;10.968;2023-02-04T13:37:01;9.20;;;3.10;;
5833;SDS011;2943;48.012;10.968;2023-02-04T13:39:28;7.50;;;3.03;;
5833;SDS011;2943;48.012;10.968;2023-02-04T13:41:56;6.07;;;2.83;;
5833;SDS011;2943;48.012;10.968;2023-02-04T13:44:23;5.33;;;2.43;;
5833;SDS011;2943;48.012;10.968;2023-02-04T13:46:50;8.50;;;3.67;;
5833;SDS011;2943;48.012;10.968;2023-02-04T13:49:17;12.57;;;2.83;;
5833;SDS011;2943;48.012;10.968;2023-02-04T13:51:45;5.03;;;2.33;;
5833;SDS011;2943;48.012;10.968;2023-02-04T13:54:12;10.77;;;2.10;;
5833;SDS011;2943;48.012;10.968;2023-02-04T13:56:39;11.07;;;2.37;;
5833;SDS011;2943;48.012;10.968;2023-02-04T13:59:07;3.50;;;2.40;;
5833;SDS011;2943;48.012;10.968;2023-02-04T14:01:34;6.33;;;2.20;;
5833;SDS011;2943;48.012;10.968;2023-02-04T14:04:01;3.40;;;2.30;;
5833;SDS011;2943;48.012;10.968;2023-02-04T14:06:28;8.57;;;2.20;;
5833;SDS011;2943;48.012;10.968;2023-02-04T14:08:58;8.43;;;2.57;;
5833;SDS011;2943;48.012;10.968;2023-02-04T14:11:25;7.03;;;2.70;;
5833;SDS011;2943;48.012;10.968;2023-02-04T14:13:52;6.33;;;2.33;;
5833;SDS011;2943;48.012;10.968;2023-02-04T14:16:20;6.90;;;2.43;;
5833;SDS011;2943;48.012;10.968;2023-02-04T14:18:47;18.17;;;4.43;;
5833;SDS011;2943;48.012;10.968;2023-02-04T14:21:14;6.90;;;2.70;;
5833;SDS011;2943;48.012;10.968;2023-02-04T14:23:41;9.87;;;3.37;;
5833;SDS011;2943;48.012;10.968;2023-02-04T14:26:08;5.80;;;2.50;;
5833;SDS011;2943;48.012;10.968;2023-02-04T14:28:35;8.80;;;2.90;;
5833;SDS011;2943;48.012;10.968;2023-02-04T14:31:02;9.23;;;3.10;;
5833;SDS011;2943;48.012;10.968;2023-02-04T14:33:30;14.73;;;2.77;;
5833;SDS011;2943;48.012;10.968;2023-02-04T14:35:57;7.03;;;3.17;;
5833;SDS011;2943;48.012;10.968;2023-02-04T14:38:24;8.83;;;3.33;;
5833;SDS011;2943;48.012;10.968;2023-02-04T14:40:54;9.53;;;3.20;;
5833;SDS011;2943;48.012;10.968;2023-02-04T14:43:22;11.43;;;3.00;;
5833;SDS011;2943;48.012;10.968;2023-02-04T14:45:49;7.20;;;3.10;;
5833;SDS011;2943;48.012;10.968;2023-02-04T14:48:16;7.67;;;3.40;;
5833;SDS011;2943;48.012;10.968;2023-02-04T14:50:44;6.83;;;2.93;;
5833;SDS011;2943;48.012;10.968;2023-02-04T14:53:11;11.40;;;4.10;;
5833;SDS011;2943;48.012;10.968;2023-02-04T14:55:38;7.30;;;3.40;;
5833;SDS011;2943;48.012;10.968;2023-02-04T14:58:05;4.33;;;2.87;;